Time;durP1;ratioP1;P1;durP2;ratioP2;P2;SDS_P1;SDS_P2;PMS_P1;PMS_P2;Temp;Humidity;BMP_temperature;BMP_pressure;BME280_temperature;BME280_humidity;BME280_pressure;Samples;Min_cycle;Max_cycle;Signal;HPM_P1;HPM_P2
2022/01/19 00:01:04;;;;;;;;;;;0.10;62.90;;;;;;5030880;28;20080;-71
2022/01/19 00:03:30;;;;;;;30.63;14.15;;;0.20;62.50;;;;;;5029067;28;20328;-72
2022/01/19 00:05:56;;;;;;;35.47;16.08;;;0.20;63.50;;;;;;5012836;28;20069;-71
2022/01/19 00:08:23;;;;;;;;;;;0.10;62.70;;;;;;5013150;28;20407;-71
2022/01/19 00:10:50;;;;;;;48.85;21.42;;;0.20;62.50;;;;;;5015629;28;19925;-71
2022/01/19 00:13:19;;;;;;;42.20;18.92;;;0.20;62.30;;;;;;5013597;28;20093;-71
2022/01/19 00:15:46;;;;;;;36.38;14.48;;;0.20;62.70;;;;;;5012758;28;20566;-70
2022/01/19 00:18:13;;;;;;;25.13;11.38;;;0.20;62.60;;;;;;5029117;28;20048;-70
2022/01/19 00:20:39;;;;;;;29.42;13.55;;;0.20;62.60;;;;;;5013753;28;20046;-71
2022/01/19 00:23:06;;;;;;;27.55;13.52;;;0.20;62.70;;;;;;5012425;28;20045;-72
2022/01/19 00:25:33;;;;;;;28.65;12.75;;;0.10;62.40;;;;;;5028729;28;20056;-71
2022/01/19 00:28:00;;;;;;;27.02;11.60;;;0.20;62.90;;;;;;4996306;28;20518;-70
2022/01/19 00:30:27;;;;;;;23.35;10.35;;;0.10;63.10;;;;;;5010976;28;20049;-71
2022/01/19 00:32:53;;;;;;;22.83;11.70;;;0.20;63.00;;;;;;5012083;28;20034;-71
2022/01/19 00:35:19;;;;;;;27.92;10.35;;;0.20;62.80;;;;;;5013491;28;20445;-71
2022/01/19 00:37:45;;;;;;;24.63;10.48;;;0.20;62.80;;;;;;5026206;28;20045;-71
2022/01/19 00:40:14;;;;;;;25.15;9.80;;;0.10;62.80;;;;;;5012531;28;20495;-71
2022/01/19 00:42:59;;;;;;;21.52;10.25;;;0.10;62.80;;;;;;5029420;28;20038;-72
2022/01/19 00:45:26;;;;;;;21.10;9.70;;;0.20;63.00;;;;;;5009857;28;20096;-71
2022/01/19 00:47:52;;;;;;;34.28;13.38;;;0.10;62.90;;;;;;4992540;28;20049;-70
2022/01/19 00:50:21;;;;;;;;;;;0.10;63.10;;;;;;4994351;28;20044;-72
2022/01/19 00:52:49;;;;;;;28.40;11.43;;;0.20;62.60;;;;;;4993504;28;19928;-71
2022/01/19 00:55:15;;;;;;;27.30;11.20;;;0.10;62.10;;;;;;5000411;28;20085;-71
2022/01/19 00:57:41;;;;;;;26.75;10.60;;;0.10;62.80;;;;;;5009480;28;20041;-72
2022/01/19 01:00:11;;;;;;;;;;;0.10;62.90;;;;;;4992016;28;20372;-70
2022/01/19 01:02:37;;;;;;;26.33;9.68;;;0.10;62.60;;;;;;4993507;28;19921;-73
2022/01/19 01:05:04;;;;;;;21.38;8.82;;;0.10;62.80;;;;;;4991745;28;20042;-71
2022/01/19 01:07:33;;;;;;;21.33;8.90;;;0.10;62.70;;;;;;4995138;28;20069;-72
2022/01/19 01:10:00;;;;;;;19.77;8.35;;;0.10;63.00;;;;;;5008600;28;20258;-72
2022/01/19 01:12:42;;;;;;;24.08;9.95;;;0.10;62.80;;;;;;4991720;28;20038;-71
2022/01/19 01:15:46;;;;;;;34.58;14.70;;;0.00;62.70;;;;;;4995600;28;20307;-70
2022/01/19 01:18:20;;;;;;;43.97;18.92;;;0.00;62.80;;;;;;5000114;28;20055;-72
2022/01/19 01:20:51;;;;;;;37.78;17.60;;;0.10;62.70;;;;;;4991487;28;20129;-72
2022/01/19 01:23:21;;;;;;;36.60;15.82;;;0.00;62.60;;;;;;4991498;28;20041;-71
2022/01/19 01:25:48;;;;;;;38.45;14.52;;;0.00;62.60;;;;;;4991695;28;20034;-71
2022/01/19 01:28:14;;;;;;;22.33;11.18;;;-0.10;62.20;;;;;;4990184;28;20093;-72
2022/01/19 01:30:41;;;;;;;29.92;14.05;;;-0.10;62.30;;;;;;4974760;28;20041;-70
2022/01/19 01:33:09;;;;;;;24.20;11.32;;;-0.10;62.90;;;;;;5000774;28;20404;-71
2022/01/19 01:35:35;;;;;;;22.17;9.80;;;-0.10;63.00;;;;;;5007844;28;20034;-72
2022/01/19 01:38:02;;;;;;;;;;;-0.10;63.00;;;;;;4990690;28;20034;-71
2022/01/19 01:40:31;;;;;;;20.67;10.77;;;-0.20;62.80;;;;;;4991471;28;19917;-71
2022/01/19 01:42:59;;;;;;;20.17;9.52;;;-0.20;62.80;;;;;;4991946;28;20109;-72
2022/01/19 01:45:29;;;;;;;21.75;8.68;;;-0.20;63.00;;;;;;4974774;28;20042;-70
2022/01/19 01:48:05;;;;;;;24.20;10.15;;;-0.20;62.50;;;;;;5006914;28;20073;-71
2022/01/19 01:53:38;;;;;;;21.83;9.25;;;-0.20;62.90;;;;;;5006894;28;20064;-70
2022/01/19 01:56:25;;;;;;;22.83;8.45;;;-0.30;62.60;;;;;;4996988;28;20450;-71
2022/01/19 01:58:51;;;;;;;18.02;7.07;;;-0.30;63.00;;;;;;5002599;28;20469;-70
2022/01/19 02:01:17;;;;;;;17.15;7.18;;;-0.30;62.50;;;;;;5016271;28;20026;-72
2022/01/19 02:03:45;;;;;;;;;;;-0.30;63.10;;;;;;5030236;28;20022;-72
2022/01/19 02:08:57;;;;;;;14.93;6.30;;;-0.40;62.70;;;;;;4997713;28;20202;-71
2022/01/19 02:23:45;;;;;;;11.85;5.30;;;-0.50;63.00;;;;;;5000790;28;20048;-71
2022/01/19 02:26:18;;;;;;;19.13;6.68;;;-0.50;63.00;;;;;;5006926;28;20069;-72
2022/01/19 02:42:41;;;;;;;13.48;6.57;;;-0.60;63.50;;;;;;5017040;28;20037;-70
2022/01/19 02:50:27;;;;;;;13.25;5.00;;;-0.60;63.20;;;;;;5021885;28;20048;-72
2022/01/19 02:52:53;;;;;;;15.10;5.85;;;-0.60;63.10;;;;;;5030685;28;20044;-71
2022/01/19 02:55:19;;;;;;;;;;;-0.60;63.30;;;;;;5018774;28;20076;-71
2022/01/19 02:57:46;;;;;;;13.65;5.05;;;-0.60;63.20;;;;;;5017081;28;19917;-72
2022/01/19 03:08:44;;;;;;;22.25;9.80;;;-0.70;63.40;;;;;;5014718;28;20041;-72
2022/01/19 03:11:13;;;;;;;23.90;9.98;;;-0.70;63.30;;;;;;5029769;28;20083;-71
2022/01/19 03:13:39;;;;;;;20.52;8.18;;;-0.70;63.20;;;;;;5024588;28;20037;-71
2022/01/19 03:16:05;;;;;;;18.33;8.32;;;-0.70;63.50;;;;;;5027975;28;20131;-71
2022/01/19 03:18:31;;;;;;;17.52;6.97;;;-0.70;63.50;;;;;;5013096;28;20402;-72
2022/01/19 03:20:58;;;;;;;17.20;7.55;;;-0.70;63.50;;;;;;5014493;28;20081;-71
2022/01/19 03:23:24;;;;;;;19.92;7.05;;;-0.70;63.60;;;;;;5013493;28;20449;-70
2022/01/19 03:25:53;;;;;;;18.08;6.00;;;-0.70;63.60;;;;;;5014416;28;20037;-72
2022/01/19 03:28:19;;;;;;;18.38;6.10;;;-0.80;63.50;;;;;;5012594;28;20065;-72
2022/01/19 03:30:47;;;;;;;13.55;5.57;;;-0.80;62.90;;;;;;5013367;28;20049;-72
2022/01/19 03:33:14;;;;;;;13.40;4.95;;;-0.80;63.40;;;;;;5013859;28;20044;-71
2022/01/19 03:35:40;;;;;;;15.25;5.32;;;-0.90;63.00;;;;;;5014088;28;20037;-72
2022/01/19 03:38:08;;;;;;;11.18;4.57;;;-0.80;63.60;;;;;;5012717;28;20053;-71
2022/01/19 03:40:36;;;;;;;15.65;4.70;;;-0.90;63.60;;;;;;5012719;28;20125;-72
2022/01/19 03:45:53;;;;;;;12.77;4.43;;;-0.90;63.70;;;;;;5023148;28;20441;-72
2022/01/19 03:50:56;;;;;;;13.35;4.93;;;-0.90;63.50;;;;;;5031495;28;20025;-72
2022/01/19 03:53:22;;;;;;;11.35;4.55;;;-0.90;63.60;;;;;;5043394;28;20084;-70
2022/01/19 03:55:48;;;;;;;13.20;4.72;;;-1.00;63.40;;;;;;5012557;28;20049;-71
2022/01/19 03:58:14;;;;;;;18.02;5.18;;;-1.00;63.50;;;;;;5013462;28;20112;-72
2022/01/19 04:00:43;;;;;;;14.65;5.35;;;-1.00;63.60;;;;;;5013133;28;20033;-70
2022/01/19 04:03:13;;;;;;;14.65;4.22;;;-1.10;63.70;;;;;;5028584;28;20108;-72
2022/01/19 04:05:53;;;;;;;9.52;3.63;;;-1.10;63.60;;;;;;5012682;28;20042;-72
2022/01/19 04:08:19;;;;;;;15.50;4.05;;;-1.10;63.70;;;;;;5012164;28;20037;-71
2022/01/19 04:10:46;;;;;;;14.75;4.85;;;-1.20;63.70;;;;;;5031151;28;20041;-72
2022/01/19 04:13:25;;;;;;;12.05;4.15;;;-1.20;63.70;;;;;;5032810;28;20038;-72
2022/01/19 04:15:52;;;;;;;17.92;5.07;;;-1.20;63.60;;;;;;5011288;28;20042;-72
2022/01/19 04:18:19;;;;;;;11.27;4.47;;;-1.30;63.20;;;;;;5028017;28;20076;-71
2022/01/19 04:20:49;;;;;;;10.43;4.43;;;-1.30;63.70;;;;;;5028704;28;20125;-71
2022/01/19 04:23:36;;;;;;;17.90;4.47;;;-1.30;63.20;;;;;;5011668;28;20060;-70
2022/01/19 04:26:03;;;;;;;14.50;5.00;;;-1.30;63.80;;;;;;5043606;28;20057;-71
2022/01/19 04:28:29;;;;;;;15.38;5.50;;;-1.30;63.20;;;;;;5024502;28;20108;-72
2022/01/19 04:30:55;;;;;;;9.68;3.95;;;-1.30;64.00;;;;;;5023847;28;20033;-72
2022/01/19 04:33:25;;;;;;;14.82;5.00;;;-1.30;63.90;;;;;;5029707;28;20037;-72
2022/01/19 04:35:54;;;;;;;13.23;4.38;;;-1.30;64.00;;;;;;5011674;28;20033;-71
2022/01/19 05:04:54;;;;;;;22.85;9.35;;;-1.50;63.80;;;;;;5031887;28;20378;-71
2022/01/19 05:07:35;;;;;;;48.05;17.33;;;-1.60;63.70;;;;;;5032117;28;20039;-72
2022/01/19 05:13:24;;;;;;;27.55;11.55;;;-1.60;63.60;;;;;;5031068;28;20043;-72
2022/01/19 05:15:35;;;;;;;37.15;15.65;;;-1.60;63.90;;;;;;5021823;28;20115;-71
2022/01/19 05:18:03;;;;;;;;;;;-1.60;63.90;;;;;;5009010;28;20056;-71
2022/01/19 05:20:30;;;;;;;31.10;13.65;;;-1.70;63.90;;;;;;5009926;28;20267;-72
2022/01/19 05:22:56;;;;;;;35.00;15.63;;;-1.70;63.70;;;;;;5011920;28;20152;-72
2022/01/19 05:25:22;;;;;;;25.63;11.43;;;-1.70;63.90;;;;;;4995285;28;20125;-72
2022/01/19 05:27:49;;;;;;;23.30;9.48;;;-1.70;63.90;;;;;;5012995;28;20038;-71
2022/01/19 05:30:17;;;;;;;;;;;-1.70;63.90;;;;;;5013604;28;20033;-72
2022/01/19 05:32:47;;;;;;;23.83;8.75;;;-1.70;63.70;;;;;;5011757;28;19918;-71
2022/01/19 05:35:14;;;;;;;21.73;8.05;;;-1.70;63.70;;;;;;5011880;28;20030;-71
2022/01/19 05:37:40;;;;;;;20.65;7.30;;;-1.70;63.90;;;;;;5011575;28;20107;-72
2022/01/19 05:40:10;;;;;;;14.13;5.50;;;-1.80;63.30;;;;;;5031776;28;20474;-71
2022/01/19 05:42:37;;;;;;;14.02;5.20;;;-1.80;63.90;;;;;;5030139;28;20025;-72
2022/01/19 05:45:04;;;;;;;19.48;6.63;;;-1.80;64.00;;;;;;5030158;28;20394;-71
2022/01/19 05:47:30;;;;;;;11.52;4.88;;;-1.90;63.60;;;;;;5030248;28;20057;-71
2022/01/19 05:49:56;;;;;;;;;;;-1.90;64.30;;;;;;5030715;28;20053;-71
2022/01/19 05:52:22;;;;;;;11.50;4.13;;;-1.90;64.20;;;;;;5031657;28;20380;-72
2022/01/19 05:54:48;;;;;;;;;;;-1.90;64.20;;;;;;5032498;28;20128;-70
2022/01/19 05:57:15;;;;;;;11.63;4.25;;;-2.00;63.40;;;;;;5026417;28;19940;-72
2022/01/19 05:59:41;;;;;;;17.52;4.72;;;-1.90;64.10;;;;;;5012322;28;20038;-73
2022/01/19 06:02:07;;;;;;;16.65;4.75;;;-2.00;64.00;;;;;;5027523;28;20030;-73
2022/01/19 06:04:34;;;;;;;14.38;5.03;;;-2.00;64.10;;;;;;5014189;28;20038;-71
2022/01/19 06:07:02;;;;;;;;;;;-2.00;63.70;;;;;;5008644;28;20049;-72
2022/01/19 06:12:15;;;;;;;15.57;4.47;;;-2.20;64.00;;;;;;5014581;28;20037;-73
2022/01/19 06:14:44;;;;;;;9.65;4.03;;;-2.30;64.10;;;;;;5025522;28;20057;-71
2022/01/19 06:17:13;;;;;;;11.48;4.63;;;-2.40;63.90;;;;;;5016734;28;20122;-71
2022/01/19 06:19:41;;;;;;;16.15;5.50;;;-2.40;63.80;;;;;;5015086;28;20382;-72
2022/01/19 06:22:07;;;;;;;25.45;9.38;;;-2.40;63.60;;;;;;5013942;28;20037;-71
2022/01/19 06:24:33;;;;;;;25.80;8.00;;;-2.50;63.20;;;;;;5022462;28;20030;-72
2022/01/19 06:26:59;;;;;;;29.63;8.95;;;-2.50;63.80;;;;;;5032050;28;20041;-72
2022/01/19 06:29:26;;;;;;;12.07;5.50;;;-2.50;63.80;;;;;;5014444;28;20038;-72
2022/01/19 06:31:52;;;;;;;12.13;5.13;;;-2.50;63.80;;;;;;5030933;28;20025;-73
2022/01/19 06:34:18;;;;;;;13.93;5.30;;;-2.60;63.80;;;;;;5030946;28;20053;-73
2022/01/19 06:36:44;;;;;;;;;;;-2.60;63.80;;;;;;5032585;28;20063;-71
2022/01/19 06:39:10;;;;;;;12.25;5.75;;;-2.70;63.40;;;;;;5030804;28;19924;-72
2022/01/19 06:41:37;;;;;;;21.45;10.55;;;-2.70;63.80;;;;;;5031567;28;20037;-73
2022/01/19 06:44:03;;;;;;;;;;;-2.70;63.60;;;;;;5018587;28;20033;-71
2022/01/19 06:46:29;;;;;;;20.98;9.00;;;-2.70;63.50;;;;;;5036137;28;19927;-71
2022/01/19 06:48:55;;;;;;;29.48;13.65;;;-2.70;63.70;;;;;;5035455;28;20065;-72
2022/01/19 06:51:21;;;;;;;27.25;13.05;;;-2.70;63.70;;;;;;5035542;28;20489;-71
2022/01/19 06:53:47;;;;;;;;;;;-2.70;63.60;;;;;;5036276;28;20112;-71
2022/01/19 06:56:13;;;;;;;29.88;13.18;;;-2.70;63.40;;;;;;5035651;28;19912;-71
2022/01/19 06:58:39;;;;;;;26.95;11.82;;;-2.60;63.50;;;;;;5034248;28;20049;-71
2022/01/19 07:01:05;;;;;;;33.90;11.80;;;-2.60;63.40;;;;;;5035601;28;20033;-71
2022/01/19 07:03:32;;;;;;;30.73;12.98;;;-2.50;63.40;;;;;;5034121;28;20433;-73
2022/01/19 07:06:00;;;;;;;42.30;16.40;;;-2.50;63.40;;;;;;5017720;28;20141;-73
2022/01/19 07:08:28;;;;;;;36.38;13.02;;;-2.50;63.30;;;;;;5035382;28;20482;-73
2022/01/19 07:10:54;;;;;;;32.72;14.20;;;-2.50;63.20;;;;;;5034109;28;20051;-71
2022/01/19 07:13:21;;;;;;;42.00;15.57;;;-2.40;63.30;;;;;;5019253;28;20041;-73
2022/01/19 07:15:48;;;;;;;50.58;20.63;;;-2.40;63.30;;;;;;5028709;28;20028;-73
2022/01/19 07:18:15;;;;;;;52.88;23.42;;;-2.40;63.00;;;;;;5027693;28;20026;-73
2022/01/19 07:20:41;;;;;;;36.05;17.27;;;-2.30;63.30;;;;;;5016347;28;20057;-71
2022/01/19 07:23:07;;;;;;;32.30;15.32;;;-2.30;63.30;;;;;;5028999;28;20029;-72
2022/01/19 07:25:33;;;;;;;37.67;18.45;;;-2.20;63.30;;;;;;5028598;28;20453;-72
2022/01/19 07:27:59;;;;;;;40.35;17.85;;;-2.20;63.20;;;;;;5013432;28;20088;-71
2022/01/19 07:30:26;;;;;;;61.72;26.08;;;-2.20;63.30;;;;;;5013562;28;20076;-71
2022/01/19 07:32:52;;;;;;;67.15;30.58;;;-2.10;63.20;;;;;;5012201;28;20040;-70
2022/01/19 07:35:19;;;;;;;68.38;30.42;;;-2.10;63.20;;;;;;5013784;28;20121;-71
2022/01/19 07:37:45;;;;;;;62.63;26.90;;;-2.00;63.30;;;;;;5028285;28;20544;-72
2022/01/19 07:40:12;;;;;;;;;;;-2.00;63.30;;;;;;5015927;28;20030;-70
2022/01/19 07:42:38;;;;;;;55.60;19.80;;;-1.90;63.00;;;;;;5027667;28;19913;-71
2022/01/19 07:45:06;;;;;;;40.78;19.25;;;-1.80;63.10;;;;;;5031859;28;20029;-73
2022/01/19 07:47:32;;;;;;;41.95;18.17;;;-1.80;62.90;;;;;;5022079;28;20073;-71
2022/01/19 07:49:58;;;;;;;;;;;-1.70;63.20;;;;;;5003218;28;20038;-71
2022/01/19 07:52:26;;;;;;;46.05;22.13;;;-1.70;63.20;;;;;;5013218;28;20145;-71
2022/01/19 07:54:52;;;;;;;49.08;24.63;;;-1.60;63.10;;;;;;5013422;28;20058;-71
2022/01/19 07:57:19;;;;;;;45.97;22.05;;;-1.60;62.90;;;;;;5015600;28;20037;-73
2022/01/19 07:59:45;;;;;;;54.97;23.75;;;-1.50;63.20;;;;;;5019177;28;20033;-73
2022/01/19 08:02:12;;;;;;;;;;;-1.40;63.20;;;;;;5025669;28;20037;-71
2022/01/19 08:04:39;;;;;;;52.28;25.00;;;-1.40;62.30;;;;;;5013583;28;20329;-71
2022/01/19 08:07:06;;;;;;;59.22;25.88;;;-1.30;62.80;;;;;;5013264;28;20057;-70
2022/01/19 08:09:33;;;;;;;48.53;24.23;;;-1.20;62.80;;;;;;5015472;28;20040;-71
2022/01/19 08:11:59;;;;;;;63.80;26.98;;;-1.10;62.40;;;;;;5030379;28;20115;-73
2022/01/19 08:14:25;;;;;;;;;;;-1.00;62.90;;;;;;5028348;28;20513;-72
2022/01/19 08:16:53;;;;;;;51.05;23.38;;;-0.90;62.80;;;;;;5012762;28;19917;-71
2022/01/19 08:19:20;;;;;;;64.68;26.10;;;-0.80;62.60;;;;;;5023255;28;20124;-72
2022/01/19 08:21:46;;;;;;;52.72;25.35;;;-0.80;62.20;;;;;;5012182;28;20474;-73
2022/01/19 08:24:13;;;;;;;48.50;25.23;;;-0.70;62.80;;;;;;5028878;28;20076;-73
2022/01/19 08:26:39;;;;;;;47.38;23.83;;;-0.60;63.00;;;;;;5029270;28;20064;-71
2022/01/19 08:29:05;;;;;;;;;;;-0.50;63.30;;;;;;5015487;28;20494;-71
2022/01/19 08:31:33;;;;;;;41.83;18.70;;;-0.40;63.00;;;;;;5014190;28;19925;-71
2022/01/19 08:33:59;;;;;;;36.40;17.02;;;-0.30;62.80;;;;;;5025113;28;20037;-72
2022/01/19 08:36:26;;;;;;;35.15;16.67;;;-0.20;62.80;;;;;;5028441;28;20527;-71
2022/01/19 08:38:53;;;;;;;34.60;15.90;;;-0.10;63.10;;;;;;5018326;28;20449;-73
2022/01/19 08:41:19;;;;;;;36.83;17.15;;;0.00;63.00;;;;;;5012535;28;20045;-71
2022/01/19 08:43:45;;;;;;;34.08;17.35;;;0.10;63.10;;;;;;5014176;28;20091;-73
2022/01/19 08:46:11;;;;;;;36.17;16.63;;;0.20;62.90;;;;;;5019418;28;20029;-71
2022/01/19 08:48:37;;;;;;;40.22;17.60;;;0.30;62.80;;;;;;5027378;28;20406;-71
2022/01/19 08:51:04;;;;;;;34.50;18.10;;;0.40;62.70;;;;;;5029317;28;20044;-71
2022/01/19 08:53:32;;;;;;;37.72;17.13;;;0.50;62.10;;;;;;5028468;28;20152;-72
2022/01/19 08:55:59;;;;;;;28.60;16.23;;;0.70;62.60;;;;;;5027655;28;20103;-71
2022/01/19 08:58:25;;;;;;;;;;;0.80;62.00;;;;;;5028845;28;20026;-71
2022/01/19 09:00:51;;;;;;;29.95;14.32;;;0.90;61.90;;;;;;5028280;28;19943;-72
2022/01/19 09:03:18;;;;;;;30.73;15.20;;;1.10;62.50;;;;;;5029204;28;20022;-71
2022/01/19 09:05:45;;;;;;;31.92;16.67;;;2.30;61.30;;;;;;5025400;28;20509;-72
2022/01/19 09:08:12;;;;;;;36.88;14.73;;;4.10;57.10;;;;;;5027273;28;20506;-73
2022/01/19 09:10:40;;;;;;;29.95;14.20;;;6.40;52.70;;;;;;5044296;28;20045;-73
2022/01/19 09:13:07;;;;;;;31.83;16.08;;;7.90;48.60;;;;;;5027518;28;20041;-73
2022/01/19 09:15:34;;;;;;;29.33;13.52;;;9.50;46.10;;;;;;5013034;28;20085;-71
2022/01/19 09:18:01;;;;;;;32.22;13.25;;;10.40;44.60;;;;;;5026492;28;20049;-71
2022/01/19 09:20:27;;;;;;;31.45;12.70;;;9.60;45.90;;;;;;5028036;28;20099;-72
2022/01/19 09:22:53;;;;;;;;;;;9.30;48.30;;;;;;5027438;28;20116;-72
2022/01/19 09:25:19;;;;;;;26.40;11.98;;;8.70;51.10;;;;;;5028410;28;19927;-72
2022/01/19 09:27:46;;;;;;;23.13;11.63;;;8.00;52.00;;;;;;5017258;28;20406;-74
2022/01/19 09:30:18;;;;;;;27.95;13.10;;;7.70;53.10;;;;;;5022183;28;20040;-72
2022/01/19 09:32:54;;;;;;;29.63;12.57;;;8.20;52.00;;;;;;5010292;28;20041;-71
2022/01/19 09:35:24;;;;;;;23.90;11.38;;;8.80;49.40;;;;;;5026969;28;20048;-72
2022/01/19 09:37:51;;;;;;;33.20;14.95;;;8.50;49.90;;;;;;5027759;28;20049;-73
2022/01/19 09:40:17;;;;;;;33.22;13.68;;;8.10;51.00;;;;;;5026806;28;20041;-72
2022/01/19 09:42:45;;;;;;;32.25;15.55;;;8.60;49.10;;;;;;5019227;28;20037;-74
2022/01/19 09:45:12;;;;;;;28.75;14.82;;;8.90;47.70;;;;;;5002305;28;20025;-72
2022/01/19 09:47:38;;;;;;;33.28;15.05;;;8.20;48.20;;;;;;5026633;28;20065;-74
2022/01/19 09:50:06;;;;;;;31.75;15.98;;;7.80;49.50;;;;;;5026723;28;20124;-72
2022/01/19 09:52:32;;;;;;;41.53;17.88;;;8.10;49.30;;;;;;5026642;28;20494;-74
2022/01/19 09:54:59;;;;;;;24.20;12.90;;;8.80;46.90;;;;;;5026454;28;20151;-73
2022/01/19 09:57:25;;;;;;;21.35;11.75;;;9.40;45.70;;;;;;5028244;28;20030;-74
2022/01/19 09:59:51;;;;;;;29.23;13.50;;;9.50;44.80;;;;;;5027733;28;20387;-73
2022/01/19 10:02:18;;;;;;;25.83;13.27;;;9.60;45.10;;;;;;5026731;28;20038;-74
2022/01/19 10:04:47;;;;;;;;;;;9.50;44.40;;;;;;5028987;28;20402;-73
2022/01/19 10:07:32;;;;;;;28.42;13.32;;;9.70;44.80;;;;;;5042920;28;20021;-72
2022/01/19 10:10:18;;;;;;;31.75;13.15;;;10.10;43.10;;;;;;5010225;28;20188;-72
2022/01/19 10:18:33;;;;;;;18.65;9.73;;;10.30;42.20;;;;;;5031739;28;20111;-74
2022/01/19 10:21:18;;;;;;;22.10;11.18;;;9.80;43.00;;;;;;5033265;28;20034;-74
2022/01/19 10:24:12;;;;;;;24.58;11.68;;;10.30;42.80;;;;;;5031398;28;20045;-74
2022/01/19 10:26:38;;;;;;;23.85;11.98;;;10.60;41.20;;;;;;5031291;28;20049;-73
2022/01/19 10:29:07;;;;;;;26.58;12.65;;;11.00;40.60;;;;;;5031789;28;20037;-73
2022/01/19 10:31:38;;;;;;;29.50;12.43;;;10.80;40.60;;;;;;5014058;28;20425;-72
2022/01/19 10:34:23;;;;;;;29.65;13.60;;;10.60;41.30;;;;;;5031486;28;20033;-73
2022/01/19 10:37:09;;;;;;;39.33;16.73;;;11.30;40.40;;;;;;5030190;28;20454;-74
2022/01/19 10:39:57;;;;;;;26.95;12.95;;;12.00;38.60;;;;;;5029847;28;20034;-72
2022/01/19 10:42:27;;;;;;;30.45;11.85;;;12.10;37.60;;;;;;5030639;28;20037;-73
2022/01/19 10:45:13;;;;;;;34.20;19.85;;;12.00;37.60;;;;;;5029953;28;20041;-72
2022/01/19 10:47:41;;;;;;;26.45;11.18;;;11.40;38.80;;;;;;5029918;28;20038;-73
2022/01/19 10:50:29;;;;;;;23.42;11.73;;;11.40;39.10;;;;;;5030895;28;20049;-72
2022/01/19 10:52:59;;;;;;;21.27;11.85;;;11.00;39.70;;;;;;5031079;28;20342;-72
2022/01/19 10:55:41;;;;;;;26.00;12.05;;;11.60;38.80;;;;;;5013194;28;20038;-72
2022/01/19 10:58:14;;;;;;;25.10;12.32;;;11.70;38.60;;;;;;5029496;28;20042;-72
2022/01/19 11:01:07;;;;;;;25.02;10.10;;;12.30;37.90;;;;;;5027325;28;20056;-73
2022/01/19 11:03:33;;;;;;;23.52;10.90;;;12.50;37.10;;;;;;5031745;28;20034;-73
2022/01/19 11:06:01;;;;;;;22.88;11.07;;;11.90;38.00;;;;;;5030162;28;20041;-74
2022/01/19 11:08:29;;;;;;;18.83;10.40;;;11.90;38.10;;;;;;5029433;28;20081;-74
2022/01/19 11:10:58;;;;;;;22.15;10.80;;;12.90;37.10;;;;;;5030681;28;20049;-74
2022/01/19 11:16:13;;;;;;;20.33;9.00;;;13.80;33.80;;;;;;5042307;28;20061;-73
2022/01/19 11:18:42;;;;;;;31.80;15.30;;;13.60;34.90;;;;;;5019849;28;20394;-73
2022/01/19 11:21:12;;;;;;;25.10;12.35;;;13.40;35.20;;;;;;5029208;28;20125;-72
2022/01/19 11:24:21;;;;;;;18.20;8.63;;;13.60;34.70;;;;;;5012274;28;20408;-74
2022/01/19 11:26:48;;;;;;;16.38;7.82;;;14.90;33.50;;;;;;5029190;28;20042;-72
2022/01/19 11:29:36;;;;;;;25.27;10.77;;;14.50;32.70;;;;;;5029898;28;20041;-74
2022/01/19 11:32:34;;;;;;;18.30;7.80;;;15.20;32.40;;;;;;5045951;28;20064;-73
2022/01/19 11:35:03;;;;;;;15.82;7.05;;;16.00;30.20;;;;;;5030158;28;20038;-74
2022/01/19 11:37:49;;;;;;;15.35;7.07;;;17.90;28.60;;;;;;5028198;28;20049;-73
2022/01/19 11:43:42;;;;;;;14.88;7.00;;;17.60;27.40;;;;;;5030333;28;20040;-74
2022/01/19 11:46:45;;;;;;;13.27;6.18;;;15.90;29.60;;;;;;5030040;28;20091;-73
2022/01/19 11:49:38;;;;;;;10.60;5.68;;;14.10;32.70;;;;;;5028560;28;20555;-74
2022/01/19 11:52:04;;;;;;;10.75;3.92;;;13.50;33.50;;;;;;5029756;28;20041;-72
2022/01/19 11:54:33;;;;;;;9.13;4.25;;;13.10;33.10;;;;;;5029294;28;20080;-73
2022/01/19 11:57:00;;;;;;;7.82;3.65;;;13.10;33.30;;;;;;5029900;28;20387;-73
2022/01/19 12:00:22;;;;;;;10.35;3.97;;;12.70;33.10;;;;;;5030626;28;20052;-73
2022/01/19 12:03:44;;;;;;;11.73;5.03;;;12.30;34.20;;;;;;5029466;28;20053;-73
2022/01/19 12:06:34;;;;;;;12.77;5.85;;;11.80;35.00;;;;;;5017467;28;20401;-73
2022/01/19 12:09:01;;;;;;;15.63;6.55;;;13.00;34.10;;;;;;5012063;28;20569;-73
2022/01/19 12:11:28;;;;;;;11.52;5.57;;;14.60;30.30;;;;;;5029290;28;20037;-73
2022/01/19 12:17:25;;;;;;;13.35;6.38;;;13.50;31.50;;;;;;5045041;28;20042;-74
2022/01/19 12:19:52;;;;;;;21.77;7.50;;;13.10;32.30;;;;;;5026914;28;20132;-72
2022/01/19 12:22:36;;;;;;;31.83;13.10;;;12.40;33.70;;;;;;5030483;28;20035;-73
2022/01/19 12:25:22;;;;;;;32.47;14.75;;;12.40;33.60;;;;;;5045414;28;20049;-73
2022/01/19 12:27:53;;;;;;;15.23;6.45;;;12.00;34.00;;;;;;5026786;28;20026;-73
2022/01/19 12:30:21;;;;;;;20.25;7.45;;;11.70;34.40;;;;;;5031252;28;20113;-74
2022/01/19 12:33:08;;;;;;;13.32;6.80;;;11.50;34.90;;;;;;5028129;28;20045;-73
2022/01/19 12:35:53;;;;;;;20.70;7.30;;;11.40;35.00;;;;;;5013171;28;20107;-73
2022/01/19 12:38:30;;;;;;;17.45;7.90;;;11.50;35.60;;;;;;5028741;28;20038;-74
2022/01/19 12:40:57;;;;;;;18.52;9.30;;;11.70;34.60;;;;;;5027438;28;20714;-73
2022/01/19 12:43:44;;;;;;;17.00;7.32;;;11.70;34.90;;;;;;5012456;28;20041;-72
2022/01/19 12:46:11;;;;;;;17.10;6.75;;;12.00;34.60;;;;;;5012873;28;20083;-74
2022/01/19 12:48:47;;;;;;;;;;;12.40;33.60;;;;;;5014692;28;20033;-73
2022/01/19 12:51:51;;;;;;;13.82;6.90;;;12.70;33.30;;;;;;5028902;28;20448;-73
2022/01/19 12:54:43;;;;;;;16.17;7.35;;;13.30;32.60;;;;;;5017134;28;20041;-73
2022/01/19 12:57:15;;;;;;;12.15;5.22;;;13.40;32.00;;;;;;5028619;28;20049;-74
2022/01/19 13:00:03;;;;;;;14.85;5.43;;;13.60;31.50;;;;;;5024336;28;20065;-72
2022/01/19 13:02:29;;;;;;;12.05;5.60;;;13.90;31.00;;;;;;5011998;28;20045;-73
2022/01/19 13:05:30;;;;;;;18.08;7.90;;;13.50;31.00;;;;;;5024443;28;20437;-74
2022/01/19 13:08:02;;;;;;;11.80;5.65;;;13.80;30.80;;;;;;5029610;28;20437;-73
2022/01/19 13:13:11;;;;;;;14.55;5.43;;;14.30;30.30;;;;;;5024618;28;20495;-73
2022/01/19 13:15:55;;;;;;;;;;;14.60;29.80;;;;;;5028810;28;20045;-73
2022/01/19 13:18:43;;;;;;;16.40;4.85;;;15.00;29.50;;;;;;5030030;28;20064;-72
2022/01/19 13:21:33;;;;;;;15.73;5.70;;;15.30;29.20;;;;;;5028977;28;20076;-73
2022/01/19 13:24:15;;;;;;;16.65;8.20;;;16.70;27.50;;;;;;5032840;28;20124;-73
2022/01/19 13:27:16;;;;;;;11.80;4.47;;;17.50;26.60;;;;;;5030722;28;20037;-73
2022/01/19 13:29:47;;;;;;;8.65;3.83;;;17.10;26.10;;;;;;5013082;28;20061;-74
2022/01/19 13:32:17;;;;;;;12.98;5.22;;;16.40;25.70;;;;;;5011396;28;20041;-75
2022/01/19 13:35:06;;;;;;;12.18;5.53;;;16.80;26.10;;;;;;5010152;28;20046;-73
2022/01/19 13:37:37;;;;;;;15.82;7.07;;;17.40;25.70;;;;;;5008691;28;20042;-73
2022/01/19 13:40:42;;;;;;;11.30;5.38;;;17.00;26.10;;;;;;4991677;28;20037;-75
2022/01/19 13:43:15;;;;;;;12.43;4.80;;;16.60;26.60;;;;;;5009534;28;20042;-74
2022/01/19 13:48:31;;;;;;;15.52;6.30;;;15.00;27.50;;;;;;5009578;28;20030;-74
2022/01/19 13:51:19;;;;;;;11.30;5.15;;;15.60;27.30;;;;;;5007767;28;20113;-73
2022/01/19 13:53:51;;;;;;;13.68;5.97;;;16.60;26.00;;;;;;5009607;28;20491;-74
2022/01/19 13:56:40;;;;;;;12.50;6.70;;;17.20;25.40;;;;;;5024446;28;20375;-73
2022/01/19 13:59:25;;;;;;;11.35;5.80;;;18.00;24.90;;;;;;5008231;28;20030;-75
2022/01/19 14:04:38;;;;;;;12.10;4.47;;;18.40;24.70;;;;;;5022301;28;20050;-73
2022/01/19 14:07:16;;;;;;;16.23;5.57;;;19.20;24.10;;;;;;5008205;28;20121;-73
2022/01/19 14:09:42;;;;;;;10.52;5.38;;;19.20;23.10;;;;;;5007933;28;20548;-74
2022/01/19 14:12:16;;;;;;;;;;;19.00;23.40;;;;;;5009900;28;20033;-73
2022/01/19 14:15:05;;;;;;;14.95;5.97;;;19.40;23.90;;;;;;5007509;28;20546;-74
2022/01/19 14:17:50;;;;;;;14.10;6.07;;;19.30;23.50;;;;;;5007523;28;20509;-74
2022/01/19 14:23:21;;;;;;;16.95;9.27;;;18.50;24.10;;;;;;5022031;28;20108;-74
2022/01/19 14:25:47;;;;;;;20.08;10.60;;;17.90;25.00;;;;;;5010093;28;20034;-74
2022/01/19 14:28:15;;;;;;;14.77;7.95;;;17.10;25.80;;;;;;4990963;28;20418;-73
2022/01/19 14:30:42;;;;;;;21.30;9.40;;;16.10;26.30;;;;;;5007681;28;20065;-74
2022/01/19 14:33:11;;;;;;;18.38;9.15;;;15.40;27.00;;;;;;5008761;28;20088;-74
2022/01/19 14:35:57;;;;;;;20.77;9.35;;;15.00;27.80;;;;;;5024207;28;20045;-74
2022/01/19 14:38:44;;;;;;;18.92;7.93;;;14.60;28.10;;;;;;5007464;28;20364;-74
2022/01/19 14:41:31;;;;;;;12.98;6.15;;;14.40;28.40;;;;;;5007197;28;20076;-74
2022/01/19 14:44:05;;;;;;;16.02;6.40;;;13.80;29.00;;;;;;5007806;28;20511;-73
2022/01/19 14:47:13;;;;;;;51.58;21.58;;;13.10;29.60;;;;;;5007539;28;20050;-73
2022/01/19 14:49:39;;;;;;;43.65;18.92;;;12.80;30.20;;;;;;5008283;28;20082;-73
2022/01/19 14:52:05;;;;;;;57.08;25.75;;;12.60;30.30;;;;;;4991424;28;20042;-73
2022/01/19 14:54:31;;;;;;;18.63;9.48;;;12.90;29.60;;;;;;5009035;28;20470;-72